createdAt,value
2022-10-05T00:00:43.324Z,12.60
2022-10-05T00:01:43.367Z,12.59
2022-10-05T00:02:43.300Z,12.59
2022-10-05T00:03:43.301Z,12.57
2022-10-05T00:04:43.616Z,12.57
2022-10-05T00:05:43.270Z,12.62
2022-10-05T00:06:43.508Z,12.60
2022-10-05T00:07:43.232Z,12.64
2022-10-05T00:08:43.244Z,12.62
2022-10-05T00:09:43.184Z,12.60
2022-10-05T00:10:43.214Z,12.64
2022-10-05T00:11:43.170Z,12.64
2022-10-05T00:12:43.197Z,12.62
2022-10-05T00:13:43.173Z,12.65
2022-10-05T00:14:43.141Z,12.67
2022-10-05T00:15:43.134Z,12.64
2022-10-05T00:16:43.204Z,12.67
2022-10-05T00:17:43.116Z,12.64
2022-10-05T00:18:43.108Z,12.64
2022-10-05T00:19:43.104Z,12.67
2022-10-05T00:20:43.101Z,12.70
2022-10-05T00:21:43.058Z,12.70
2022-10-05T00:22:43.050Z,12.68
2022-10-05T00:23:43.069Z,12.65
2022-10-05T00:24:43.076Z,12.67
2022-10-05T00:25:43.709Z,12.65
2022-10-05T00:26:43.114Z,12.67
2022-10-05T00:27:43.007Z,12.70
2022-10-05T00:28:43.000Z,12.67
2022-10-05T00:29:43.015Z,12.65
2022-10-05T00:30:43.008Z,12.67
2022-10-05T00:31:43.042Z,12.65
2022-10-05T00:32:42.964Z,12.62
2022-10-05T00:33:42.975Z,12.64
2022-10-05T00:34:42.962Z,12.67
2022-10-05T00:35:42.944Z,12.67
2022-10-05T00:36:43.358Z,12.67
2022-10-05T00:37:42.905Z,12.67
2022-10-05T00:38:42.895Z,12.67
2022-10-05T00:39:42.906Z,12.70
2022-10-05T00:40:42.946Z,12.71
2022-10-05T00:41:42.878Z,12.71
2022-10-05T00:42:42.879Z,12.71
2022-10-05T00:43:42.855Z,12.71
2022-10-05T00:44:42.862Z,12.72
2022-10-05T00:45:42.920Z,12.68
2022-10-05T00:46:43.077Z,12.70
2022-10-05T00:47:42.806Z,12.70
2022-10-05T00:48:42.801Z,12.70
2022-10-05T00:49:42.772Z,12.68
2022-10-05T00:50:42.758Z,12.67
2022-10-05T00:51:42.734Z,12.68
2022-10-05T00:52:42.720Z,12.68
2022-10-05T00:53:42.706Z,12.68
2022-10-05T00:54:42.693Z,12.68
2022-10-05T00:55:42.685Z,12.68
2022-10-05T00:56:42.809Z,12.68
2022-10-05T00:57:42.661Z,12.68
2022-10-05T00:58:42.705Z,12.71
2022-10-05T00:59:42.693Z,12.68
2022-10-05T01:00:42.656Z,12.68
2022-10-05T01:01:42.660Z,12.67
2022-10-05T01:02:42.637Z,12.67
2022-10-05T01:03:42.596Z,12.67
2022-10-05T01:04:42.655Z,12.64
2022-10-05T01:05:42.831Z,12.62
2022-10-05T01:06:42.803Z,12.62
2022-10-05T01:07:42.561Z,12.64
2022-10-05T01:08:42.537Z,12.60
2022-10-05T01:09:42.605Z,12.60
2022-10-05T01:10:42.518Z,12.57
2022-10-05T01:11:42.567Z,12.59
2022-10-05T01:12:42.572Z,12.57
2022-10-05T01:13:42.488Z,12.56
2022-10-05T01:14:42.480Z,12.57
2022-10-05T01:15:42.451Z,12.57
2022-10-05T01:16:42.519Z,12.56
2022-10-05T01:17:42.429Z,12.54
2022-10-05T01:18:42.433Z,12.56
2022-10-05T01:19:42.420Z,12.54
2022-10-05T01:20:42.422Z,12.54
2022-10-05T01:21:42.382Z,12.53
2022-10-05T01:22:42.388Z,12.54
2022-10-05T01:23:42.379Z,12.56
2022-10-05T01:24:42.366Z,12.54
2022-10-05T01:25:42.367Z,12.59
2022-10-05T01:26:42.337Z,12.60
2022-10-05T01:27:42.329Z,12.60
2022-10-05T01:28:42.315Z,12.62
2022-10-05T01:29:42.347Z,12.60
2022-10-05T01:30:42.318Z,12.62
2022-10-05T01:31:42.472Z,12.62
2022-10-05T01:32:42.268Z,12.60
2022-10-05T01:33:42.276Z,12.62
2022-10-05T01:34:42.251Z,12.60
2022-10-05T01:35:42.238Z,12.65
2022-10-05T01:36:42.271Z,12.64
2022-10-05T01:37:42.221Z,12.60
2022-10-05T01:38:42.215Z,12.62
2022-10-05T01:39:42.202Z,12.64
2022-10-05T01:40:42.194Z,12.62
2022-10-05T01:41:42.168Z,12.62
2022-10-05T01:42:42.190Z,12.62
2022-10-05T01:43:42.160Z,12.64
2022-10-05T01:44:42.154Z,12.60
2022-10-05T01:45:42.173Z,12.60
2022-10-05T01:46:42.129Z,12.57
2022-10-05T01:47:42.111Z,12.60
2022-10-05T01:48:42.112Z,12.57
2022-10-05T01:49:42.079Z,12.57
2022-10-05T01:50:42.089Z,12.57
2022-10-05T01:51:42.075Z,12.56
2022-10-05T01:52:42.061Z,12.54
2022-10-05T01:53:42.048Z,12.53
2022-10-05T01:54:42.039Z,12.53
2022-10-05T01:55:42.024Z,12.56
2022-10-05T01:56:42.028Z,12.53
2022-10-05T01:57:41.997Z,12.56
2022-10-05T01:58:41.998Z,12.56
2022-10-05T01:59:41.988Z,12.53
2022-10-05T02:00:42.015Z,12.53
2022-10-05T02:01:41.952Z,12.50
2022-10-05T02:02:41.993Z,12.50
2022-10-05T02:03:42.054Z,12.49
2022-10-05T02:05:01.447Z,12.49
2022-10-05T02:05:42.898Z,12.52
2022-10-05T02:06:41.898Z,12.53
2022-10-05T02:07:42.312Z,12.52
2022-10-05T02:08:41.889Z,12.53
2022-10-05T02:09:41.880Z,12.54
2022-10-05T02:10:41.891Z,12.53
2022-10-05T02:11:41.858Z,12.52
2022-10-05T02:12:41.904Z,12.49
2022-10-05T02:13:41.829Z,12.52
2022-10-05T02:14:41.836Z,12.50
2022-10-05T02:15:41.861Z,12.50
2022-10-05T02:16:41.793Z,12.56
2022-10-05T02:17:41.875Z,12.54
2022-10-05T02:18:42.542Z,12.56
2022-10-05T02:19:41.752Z,12.56
2022-10-05T02:20:42.395Z,12.54
2022-10-05T02:21:41.765Z,12.53
2022-10-05T02:22:41.729Z,12.53
2022-10-05T02:23:41.710Z,12.52
2022-10-05T02:24:41.711Z,12.52
2022-10-05T02:25:41.743Z,12.53
2022-10-05T02:26:41.699Z,12.52
2022-10-05T02:27:41.675Z,12.52
2022-10-05T02:28:41.672Z,12.52
2022-10-05T02:29:41.688Z,12.52
2022-10-05T02:30:41.699Z,12.52
2022-10-05T02:31:41.666Z,12.52
2022-10-05T02:32:41.625Z,12.53
2022-10-05T02:33:41.608Z,12.53
2022-10-05T02:34:41.633Z,12.53
2022-10-05T02:35:41.609Z,12.53
2022-10-05T02:36:41.580Z,12.52
2022-10-05T02:37:41.560Z,12.52
2022-10-05T02:38:41.623Z,12.52
2022-10-05T02:39:41.558Z,12.50
2022-10-05T02:40:41.671Z,12.50
2022-10-05T02:41:41.560Z,12.53
2022-10-05T02:42:41.506Z,12.50
2022-10-05T02:43:41.481Z,12.54
2022-10-05T02:44:41.495Z,12.59
2022-10-05T02:45:41.524Z,12.60
2022-10-05T02:46:41.450Z,12.65
2022-10-05T02:47:41.442Z,12.65
2022-10-05T02:48:41.437Z,12.62
2022-10-05T02:49:41.439Z,12.65
2022-10-05T02:50:41.425Z,12.62
2022-10-05T02:51:41.452Z,12.65
2022-10-05T02:52:41.554Z,12.67
2022-10-05T02:53:41.398Z,12.70
2022-10-05T02:54:41.385Z,12.68
2022-10-05T02:55:41.372Z,12.71
2022-10-05T02:56:41.361Z,12.71
2022-10-05T02:57:41.335Z,12.72
2022-10-05T02:58:41.334Z,12.74
2022-10-05T02:59:41.332Z,12.75
2022-10-05T03:00:41.375Z,12.75
2022-10-05T03:01:41.427Z,12.75
2022-10-05T03:02:41.298Z,12.78
2022-10-05T03:03:41.285Z,12.78
2022-10-05T03:04:41.297Z,12.78
2022-10-05T03:05:41.251Z,12.82
2022-10-05T03:06:41.253Z,12.83
2022-10-05T03:07:41.274Z,12.85
2022-10-05T03:08:41.244Z,12.85
2022-10-05T03:09:41.499Z,12.83
2022-10-05T03:10:41.232Z,12.85
2022-10-05T03:12:34.607Z,12.89
2022-10-05T03:13:34.953Z,12.89
2022-10-05T03:14:34.968Z,12.90
2022-10-05T03:15:34.807Z,12.90
2022-10-05T03:16:34.626Z,12.90
2022-10-05T03:17:35.041Z,12.92
2022-10-05T03:18:35.250Z,12.89
2022-10-05T03:19:34.269Z,12.90
2022-10-05T03:20:34.911Z,12.95
2022-10-05T03:21:34.356Z,12.97
2022-10-05T03:22:35.053Z,12.97
2022-10-05T03:23:34.882Z,12.96
2022-10-05T03:24:34.581Z,12.95
2022-10-05T03:25:34.562Z,12.95
2022-10-05T03:26:34.951Z,12.95
2022-10-05T03:27:34.193Z,12.93
2022-10-05T03:28:34.179Z,12.93
2022-10-05T03:29:34.950Z,12.95
2022-10-05T03:30:35.013Z,12.93
2022-10-05T03:31:34.473Z,12.92
2022-10-05T03:32:34.695Z,12.90
2022-10-05T03:33:35.065Z,12.89
2022-10-05T03:34:35.062Z,12.90
2022-10-05T03:35:34.272Z,12.89
2022-10-05T03:36:34.269Z,12.89
2022-10-05T03:37:35.087Z,12.89
2022-10-05T03:38:34.346Z,12.87
2022-10-05T03:39:35.280Z,12.86
2022-10-05T03:40:33.920Z,12.85
2022-10-05T03:41:33.831Z,12.85
2022-10-05T03:42:33.903Z,12.85
2022-10-05T03:43:33.979Z,12.83
2022-10-05T03:44:34.233Z,12.85
2022-10-05T03:45:33.916Z,12.82
2022-10-05T03:46:33.716Z,12.79
2022-10-05T03:47:33.666Z,12.82
2022-10-05T03:48:33.622Z,12.83
2022-10-05T03:49:33.659Z,12.85
2022-10-05T03:50:33.614Z,12.86
2022-10-05T03:51:33.621Z,12.87
2022-10-05T03:52:33.611Z,12.86
2022-10-05T03:53:33.668Z,12.87
2022-10-05T03:54:33.617Z,12.86
2022-10-05T03:55:33.863Z,12.86
2022-10-05T03:56:33.687Z,12.90
2022-10-05T03:57:33.593Z,12.92
2022-10-05T03:58:33.543Z,12.92
2022-10-05T03:59:33.525Z,12.92
2022-10-05T04:00:33.502Z,12.92
2022-10-05T04:01:33.525Z,12.96
2022-10-05T04:02:33.539Z,13.00
2022-10-05T04:03:33.561Z,12.97
2022-10-05T04:04:33.662Z,13.00
2022-10-05T04:05:33.571Z,12.96
2022-10-05T04:06:33.734Z,12.96
2022-10-05T04:07:33.463Z,12.96
2022-10-05T04:08:33.733Z,13.00
2022-10-05T04:09:33.492Z,12.95
2022-10-05T04:10:33.452Z,12.95
2022-10-05T04:11:33.627Z,12.92
2022-10-05T04:12:33.358Z,12.90
2022-10-05T04:13:33.329Z,12.89
2022-10-05T04:14:33.343Z,12.90
2022-10-05T04:15:33.410Z,12.89
2022-10-05T04:16:33.697Z,12.90
2022-10-05T04:17:33.673Z,12.89
2022-10-05T04:18:33.391Z,12.87
2022-10-05T04:19:33.464Z,12.87
2022-10-05T04:20:33.414Z,12.89
2022-10-05T04:21:33.466Z,12.89
2022-10-05T04:22:33.392Z,12.90
2022-10-05T04:23:33.291Z,12.90
2022-10-05T04:24:33.253Z,12.90
2022-10-05T04:25:33.263Z,12.92
2022-10-05T04:26:33.289Z,12.93
2022-10-05T04:27:33.231Z,12.95
2022-10-05T04:28:33.353Z,12.96
2022-10-05T04:29:33.579Z,12.95
2022-10-05T04:30:33.663Z,12.92
2022-10-05T04:31:33.429Z,12.95
2022-10-05T04:32:33.177Z,12.95
2022-10-05T04:33:33.171Z,13.00
2022-10-05T04:34:33.350Z,13.00
2022-10-05T04:35:33.378Z,13.00
2022-10-05T04:36:33.789Z,13.00
2022-10-05T04:37:33.227Z,12.97
2022-10-05T04:38:33.214Z,13.00
2022-10-05T04:39:33.155Z,13.01
2022-10-05T04:40:33.247Z,13.01
2022-10-05T04:41:33.182Z,13.03
2022-10-05T04:42:33.327Z,13.03
2022-10-05T04:43:33.135Z,13.00
2022-10-05T04:44:33.034Z,12.97
2022-10-05T04:45:33.026Z,13.00
2022-10-05T04:46:33.101Z,12.96
2022-10-05T04:47:32.998Z,12.96
2022-10-05T04:48:33.039Z,12.93
2022-10-05T04:49:32.986Z,12.95
2022-10-05T04:50:32.976Z,12.93
2022-10-05T04:51:32.960Z,12.92
2022-10-05T04:52:32.946Z,12.92
2022-10-05T04:53:33.021Z,12.92
2022-10-05T04:54:32.982Z,12.90
2022-10-05T04:55:32.916Z,12.87
2022-10-05T04:56:32.938Z,12.87
2022-10-05T04:57:32.914Z,12.89
2022-10-05T04:58:32.920Z,12.89
2022-10-05T04:59:34.212Z,12.87
2022-10-05T05:00:33.056Z,12.85
2022-10-05T05:01:32.910Z,12.86
2022-10-05T05:02:32.884Z,12.85
2022-10-05T05:03:32.875Z,12.86
2022-10-05T05:04:32.837Z,12.86
2022-10-05T05:05:32.862Z,12.83
2022-10-05T05:06:32.844Z,12.82
2022-10-05T05:07:32.845Z,12.82
2022-10-05T05:08:32.786Z,12.83
2022-10-05T05:09:32.777Z,12.82
2022-10-05T05:10:32.790Z,12.83
2022-10-05T05:11:33.617Z,12.85
2022-10-05T05:12:32.771Z,12.86
2022-10-05T05:13:32.844Z,12.89
2022-10-05T05:14:32.738Z,12.92
2022-10-05T05:15:33.006Z,12.90
2022-10-05T05:16:32.803Z,12.92
2022-10-05T05:17:32.676Z,12.93
2022-10-05T05:18:32.677Z,12.97
2022-10-05T05:19:32.654Z,12.97
2022-10-05T05:20:32.679Z,13.01
2022-10-05T05:21:32.629Z,13.05
2022-10-05T05:22:32.622Z,13.07
2022-10-05T05:23:32.618Z,13.04
2022-10-05T05:24:32.624Z,13.08
2022-10-05T05:25:32.615Z,13.10
2022-10-05T05:26:36.756Z,13.07
2022-10-05T05:27:33.655Z,13.11
2022-10-05T05:28:32.635Z,13.10
2022-10-05T05:29:32.554Z,13.12
2022-10-05T05:30:32.571Z,13.14
2022-10-05T05:31:32.560Z,13.15
2022-10-05T05:32:32.583Z,13.19
2022-10-05T05:33:32.546Z,13.20
2022-10-05T05:34:32.514Z,13.23
2022-10-05T05:35:32.481Z,13.22
2022-10-05T05:36:32.548Z,13.23
2022-10-05T05:37:32.529Z,13.25
2022-10-05T05:38:32.443Z,13.25
2022-10-05T05:39:32.466Z,13.25
2022-10-05T05:40:32.446Z,13.29
2022-10-05T05:41:32.453Z,13.33
2022-10-05T05:42:32.440Z,13.36
2022-10-05T05:43:32.428Z,13.36
2022-10-05T05:44:35.322Z,13.39
2022-10-05T05:45:33.377Z,13.42
2022-10-05T05:46:58.422Z,13.42
2022-10-05T05:47:33.415Z,13.41
2022-10-05T05:48:32.346Z,13.41
2022-10-05T05:49:32.326Z,13.41
2022-10-05T05:50:32.352Z,13.44
2022-10-05T05:51:32.338Z,13.44
2022-10-05T05:52:32.284Z,13.46
2022-10-05T05:53:32.281Z,13.48
2022-10-05T05:54:32.265Z,13.48
2022-10-05T05:55:32.288Z,13.51
2022-10-05T05:56:32.264Z,13.52
2022-10-05T05:57:32.300Z,13.51
2022-10-05T05:58:32.252Z,13.51
2022-10-05T05:59:32.247Z,13.49
2022-10-05T06:00:32.208Z,13.51
2022-10-05T06:01:33.902Z,13.54
2022-10-05T06:02:32.309Z,13.54
2022-10-05T06:03:32.228Z,13.54
2022-10-05T06:04:32.159Z,13.57
2022-10-05T06:05:32.143Z,13.59
2022-10-05T06:06:32.130Z,13.55
2022-10-05T06:07:32.171Z,13.59
2022-10-05T06:08:32.146Z,13.60
2022-10-05T06:09:32.115Z,13.63
2022-10-05T06:10:32.131Z,13.69
2022-10-05T06:11:32.141Z,13.71
2022-10-05T06:12:32.119Z,13.75
2022-10-05T06:13:32.109Z,13.75
2022-10-05T06:14:32.077Z,13.77
2022-10-05T06:15:32.384Z,13.81
2022-10-05T06:16:32.137Z,13.81
2022-10-05T06:17:32.042Z,13.85
2022-10-05T06:18:32.033Z,13.88
2022-10-05T06:19:32.014Z,13.92
2022-10-05T06:20:32.277Z,13.92
2022-10-05T06:21:32.032Z,13.92
2022-10-05T06:22:33.131Z,13.96
2022-10-05T06:23:32.226Z,13.96
2022-10-05T06:24:32.161Z,13.96
2022-10-05T06:25:31.961Z,13.99
2022-10-05T06:26:32.022Z,13.99
2022-10-05T06:27:32.009Z,14.00
2022-10-05T06:28:32.102Z,14.02
2022-10-05T06:29:31.925Z,14.00
2022-10-05T06:30:31.935Z,14.03
2022-10-05T06:31:32.080Z,14.03
2022-10-05T06:32:32.051Z,14.04
2022-10-05T06:33:31.890Z,14.07
2022-10-05T06:34:32.924Z,14.10
2022-10-05T06:35:32.613Z,14.12
2022-10-05T06:36:31.863Z,14.12
2022-10-05T06:37:32.207Z,14.14
2022-10-05T06:38:31.903Z,14.14
2022-10-05T06:39:31.902Z,14.12
2022-10-05T06:40:31.883Z,14.14
2022-10-05T06:41:31.808Z,14.15
2022-10-05T06:42:31.866Z,14.14
2022-10-05T06:43:31.885Z,14.17
2022-10-05T06:44:31.777Z,14.14
2022-10-05T06:45:32.006Z,14.17
2022-10-05T06:46:31.815Z,14.17
2022-10-05T06:47:31.877Z,14.20
2022-10-05T06:48:31.783Z,14.17
2022-10-05T06:49:31.785Z,14.18
2022-10-05T06:50:31.723Z,14.18
2022-10-05T06:51:31.740Z,14.15
2022-10-05T06:52:31.686Z,14.15
2022-10-05T06:53:31.648Z,14.17
2022-10-05T06:54:31.784Z,14.17
2022-10-05T06:55:31.900Z,14.15
2022-10-05T06:56:32.134Z,14.15
2022-10-05T06:57:31.703Z,14.15
2022-10-05T06:58:31.658Z,14.18
2022-10-05T06:59:32.133Z,14.20
2022-10-05T07:00:32.558Z,14.22
2022-10-05T07:01:33.511Z,14.24
2022-10-05T07:02:33.435Z,14.28
2022-10-05T07:03:33.310Z,14.28
2022-10-05T07:04:36.943Z,14.32
2022-10-05T07:05:32.710Z,14.33
2022-10-05T07:06:32.469Z,14.35
2022-10-05T07:07:31.830Z,14.39
2022-10-05T07:08:31.586Z,14.39
2022-10-05T07:09:31.600Z,14.40
2022-10-05T07:10:31.699Z,14.43
2022-10-05T07:11:31.655Z,14.47
2022-10-05T07:12:31.614Z,14.50
2022-10-05T07:13:32.553Z,14.52
2022-10-05T07:14:31.638Z,14.52
2022-10-05T07:15:31.444Z,14.55
2022-10-05T07:16:31.487Z,14.55
2022-10-05T07:17:31.687Z,14.57
2022-10-05T07:18:31.399Z,14.60
2022-10-05T07:19:31.426Z,14.60
2022-10-05T07:20:31.428Z,14.64
2022-10-05T07:21:31.413Z,14.68
2022-10-05T07:22:34.082Z,14.68
2022-10-05T07:23:31.405Z,14.72
2022-10-05T07:24:31.357Z,14.72
2022-10-05T07:25:31.339Z,14.72
2022-10-05T07:26:31.418Z,14.75
2022-10-05T07:27:31.400Z,14.77
2022-10-05T07:28:31.464Z,14.80
2022-10-05T07:29:31.277Z,14.84
2022-10-05T07:30:31.333Z,14.91
2022-10-05T07:31:31.259Z,14.95
2022-10-05T07:32:31.286Z,14.98
2022-10-05T07:33:31.261Z,14.96
2022-10-05T07:34:31.311Z,14.98
2022-10-05T07:35:31.212Z,15.01
2022-10-05T07:36:32.093Z,15.01
2022-10-05T07:37:31.318Z,14.99
2022-10-05T07:38:31.228Z,15.01
2022-10-05T07:39:55.429Z,15.03
2022-10-05T07:40:32.172Z,15.06
2022-10-05T07:41:31.161Z,15.09
2022-10-05T07:42:31.262Z,15.09
2022-10-05T07:43:45.194Z,15.16
2022-10-05T07:44:32.264Z,15.14
2022-10-05T07:45:31.330Z,15.17
2022-10-05T07:46:31.620Z,15.21
2022-10-05T07:47:31.605Z,15.20
2022-10-05T07:48:31.542Z,15.20
2022-10-05T07:49:31.164Z,15.19
2022-10-05T07:50:31.116Z,15.23
2022-10-05T07:51:31.233Z,15.25
2022-10-05T07:52:34.508Z,15.27
2022-10-05T07:53:30.983Z,15.25
2022-10-05T07:54:31.029Z,15.27
2022-10-05T07:55:31.021Z,15.29
2022-10-05T07:56:31.053Z,15.35
2022-10-05T07:57:31.204Z,15.36
2022-10-05T07:58:30.944Z,15.38
2022-10-05T07:59:31.244Z,15.41
2022-10-05T08:00:30.956Z,15.44
2022-10-05T08:01:30.979Z,15.49
2022-10-05T08:02:31.044Z,15.50
2022-10-05T08:03:31.242Z,15.53
2022-10-05T08:04:31.848Z,15.57
2022-10-05T08:05:30.963Z,15.56
2022-10-05T08:06:31.061Z,15.53
2022-10-05T08:07:31.287Z,15.54
2022-10-05T08:08:32.997Z,15.60
2022-10-05T08:09:31.894Z,15.57
2022-10-05T08:10:31.477Z,15.60
2022-10-05T08:11:31.039Z,15.65
2022-10-05T08:12:30.937Z,15.65
2022-10-05T08:13:31.321Z,15.67
2022-10-05T08:14:30.962Z,15.71
2022-10-05T08:15:31.831Z,15.78
2022-10-05T08:16:32.896Z,15.78
2022-10-05T08:17:31.541Z,15.75
2022-10-05T08:18:30.957Z,15.71
2022-10-05T08:19:31.131Z,15.68
2022-10-05T08:20:30.942Z,15.69
2022-10-05T08:21:32.215Z,15.71
2022-10-05T08:22:32.651Z,15.78
2022-10-05T08:23:30.849Z,15.76
2022-10-05T08:24:30.762Z,15.78
2022-10-05T08:25:31.797Z,15.83
2022-10-05T08:26:30.830Z,15.87
2022-10-05T08:27:32.390Z,15.89
2022-10-05T08:28:35.296Z,15.93
2022-10-05T08:29:30.789Z,15.93
2022-10-05T08:30:32.020Z,15.93
2022-10-05T08:31:30.652Z,15.96
2022-10-05T08:32:30.738Z,15.97
2022-10-05T08:33:30.628Z,16.01
2022-10-05T08:34:30.620Z,16.05
2022-10-05T08:35:31.230Z,16.07
2022-10-05T08:36:30.988Z,16.07
2022-10-05T08:37:30.633Z,16.09
2022-10-05T08:38:30.674Z,16.08
2022-10-05T08:39:31.342Z,16.07
2022-10-05T08:40:31.156Z,16.07
2022-10-05T08:41:31.156Z,16.07
2022-10-05T08:42:32.478Z,16.08
2022-10-05T08:43:35.015Z,16.07
2022-10-05T08:44:30.581Z,16.04
2022-10-05T08:45:31.137Z,16.07
2022-10-05T08:46:30.789Z,16.08
2022-10-05T08:47:31.063Z,16.04
2022-10-05T08:48:30.585Z,16.07
2022-10-05T08:49:35.040Z,16.02
2022-10-05T08:50:30.849Z,16.02
2022-10-05T08:51:31.118Z,16.00
2022-10-05T08:52:30.586Z,16.00
2022-10-05T08:53:30.859Z,15.97
2022-10-05T08:54:30.709Z,15.97
2022-10-05T08:55:32.087Z,16.00
2022-10-05T08:56:30.625Z,16.01
2022-10-05T08:57:30.606Z,15.97
2022-10-05T08:58:31.020Z,15.97
2022-10-05T08:59:31.017Z,16.00
2022-10-05T09:00:30.443Z,15.97
2022-10-05T09:01:30.513Z,15.93
2022-10-05T09:02:31.277Z,15.93
2022-10-05T09:03:34.335Z,15.89
2022-10-05T09:04:30.456Z,15.90
2022-10-05T09:05:30.404Z,15.89
2022-10-05T09:06:30.703Z,15.84
2022-10-05T09:07:31.763Z,15.83
2022-10-05T09:08:30.352Z,15.80
2022-10-05T09:09:30.435Z,15.80
2022-10-05T09:10:32.154Z,15.78
2022-10-05T09:11:30.789Z,15.75
2022-10-05T09:12:39.858Z,15.76
2022-10-05T09:13:30.137Z,15.75
2022-10-05T09:14:32.608Z,15.74
2022-10-05T09:15:30.154Z,15.72
2022-10-05T09:16:30.136Z,15.72
2022-10-05T09:17:30.101Z,15.74
2022-10-05T09:18:30.198Z,15.74
2022-10-05T09:19:30.204Z,15.71
2022-10-05T09:20:30.246Z,15.71
2022-10-05T09:21:30.226Z,15.69
2022-10-05T09:22:30.175Z,15.69
2022-10-05T09:23:30.078Z,15.67
2022-10-05T09:24:30.195Z,15.68
2022-10-05T09:25:30.040Z,15.67
2022-10-05T09:26:30.092Z,15.68
2022-10-05T09:27:29.987Z,15.68
2022-10-05T09:28:30.111Z,15.71
2022-10-05T09:29:30.049Z,15.75
2022-10-05T09:30:29.975Z,15.80
2022-10-05T09:31:30.010Z,15.83
2022-10-05T09:32:29.953Z,15.89
2022-10-05T09:33:29.988Z,15.89
2022-10-05T09:34:29.934Z,15.92
2022-10-05T09:35:29.952Z,15.97
2022-10-05T09:36:30.053Z,16.01
2022-10-05T09:37:29.913Z,16.04
2022-10-05T09:38:29.894Z,16.07
2022-10-05T09:39:29.870Z,16.11
2022-10-05T09:40:30.060Z,16.12
2022-10-05T09:41:29.879Z,16.11
2022-10-05T09:42:29.888Z,16.12
2022-10-05T09:43:29.920Z,16.20
2022-10-05T09:44:29.821Z,16.25
2022-10-05T09:45:29.822Z,16.28
2022-10-05T09:46:29.951Z,16.31
2022-10-05T09:47:29.835Z,16.33
2022-10-05T09:48:29.800Z,16.35
2022-10-05T09:49:29.758Z,16.39
2022-10-05T09:50:29.782Z,16.43
2022-10-05T09:51:29.765Z,16.46
2022-10-05T09:52:29.855Z,16.49
2022-10-05T09:53:29.722Z,16.50
2022-10-05T09:54:29.731Z,16.52
2022-10-05T09:55:29.774Z,16.48
2022-10-05T09:56:29.752Z,16.52
2022-10-05T09:57:29.684Z,16.56
2022-10-05T09:58:29.668Z,16.60
2022-10-05T09:59:29.658Z,16.61
2022-10-05T10:00:29.704Z,16.63
2022-10-05T10:01:33.546Z,16.68
2022-10-05T10:02:29.691Z,16.68
2022-10-05T10:03:29.686Z,16.71
2022-10-05T10:04:29.578Z,16.75
2022-10-05T10:05:29.694Z,16.76
2022-10-05T10:06:29.581Z,16.81
2022-10-05T10:07:29.581Z,16.79
2022-10-05T10:08:29.555Z,16.82
2022-10-05T10:09:29.543Z,16.88
2022-10-05T10:10:29.519Z,16.96
2022-10-05T10:11:29.546Z,16.98
2022-10-05T10:12:29.506Z,16.96
2022-10-05T10:13:29.499Z,16.94
2022-10-05T10:14:29.581Z,16.97
2022-10-05T10:15:29.656Z,16.94
2022-10-05T10:16:29.466Z,16.93
2022-10-05T10:17:29.432Z,16.97
2022-10-05T10:18:29.440Z,17.06
2022-10-05T10:19:29.445Z,17.04
2022-10-05T10:20:29.451Z,17.03
2022-10-05T10:21:29.444Z,17.03
2022-10-05T10:22:29.424Z,16.98
2022-10-05T10:23:29.484Z,17.04
2022-10-05T10:24:29.369Z,17.11
2022-10-05T10:25:29.426Z,17.11
2022-10-05T10:26:29.392Z,17.15
2022-10-05T10:27:29.449Z,17.16
2022-10-05T10:28:29.474Z,17.21
2022-10-05T10:29:29.313Z,17.16
2022-10-05T10:30:31.054Z,17.15
2022-10-05T10:31:29.417Z,17.19
2022-10-05T10:32:29.290Z,17.22
2022-10-05T10:33:29.265Z,17.26
2022-10-05T10:34:29.398Z,17.31
2022-10-05T10:36:29.248Z,17.36
2022-10-05T10:37:29.267Z,17.37
2022-10-05T10:38:29.226Z,17.37
2022-10-05T10:39:29.201Z,17.38
2022-10-05T10:40:29.188Z,17.36
2022-10-05T10:41:29.189Z,17.33
2022-10-05T10:42:29.190Z,17.36
2022-10-05T10:43:29.161Z,17.31
2022-10-05T10:44:29.156Z,17.34
2022-10-05T10:45:29.204Z,17.37
2022-10-05T10:46:29.194Z,17.37
2022-10-05T10:47:29.166Z,17.38
2022-10-05T10:48:29.156Z,17.40
2022-10-05T10:49:29.144Z,17.51
2022-10-05T10:50:29.175Z,17.51
2022-10-05T10:51:29.089Z,17.49
2022-10-05T10:52:29.157Z,17.55
2022-10-05T10:53:29.078Z,17.54
2022-10-05T10:54:29.099Z,17.49
2022-10-05T10:55:29.031Z,17.48
2022-10-05T10:56:29.061Z,17.55
2022-10-05T10:57:29.036Z,17.59
2022-10-05T10:59:30.853Z,17.77
2022-10-05T11:00:29.020Z,17.78
2022-10-05T11:01:29.075Z,17.72
2022-10-05T11:02:29.058Z,17.75
2022-10-05T11:03:29.942Z,17.77
2022-10-05T11:04:29.045Z,17.81
2022-10-05T11:05:28.984Z,17.87
2022-10-05T11:06:29.052Z,17.92
2022-10-05T11:07:29.043Z,17.95
2022-10-05T11:08:28.924Z,17.97
2022-10-05T11:09:28.899Z,17.93
2022-10-05T11:10:28.892Z,17.97
2022-10-05T11:11:29.236Z,18.05
2022-10-05T11:12:33.551Z,18.05
2022-10-05T11:13:29.893Z,18.00
2022-10-05T11:14:29.041Z,18.02
2022-10-05T11:15:28.868Z,18.03
2022-10-05T11:16:28.827Z,17.99
2022-10-05T11:17:28.905Z,18.02
2022-10-05T11:18:28.856Z,18.02
2022-10-05T11:19:39.881Z,18.02
2022-10-05T11:20:29.835Z,18.00
2022-10-05T11:21:28.804Z,18.02
2022-10-05T11:22:28.785Z,18.08
2022-10-05T11:23:28.811Z,18.18
2022-10-05T11:24:28.801Z,18.12
2022-10-05T11:25:28.941Z,18.12
2022-10-05T11:26:28.744Z,18.14
2022-10-05T11:27:28.746Z,18.17
2022-10-05T11:28:28.803Z,18.17
2022-10-05T11:29:29.841Z,18.26
2022-10-05T11:30:28.763Z,18.26
2022-10-05T11:31:28.707Z,18.33
2022-10-05T11:32:28.731Z,18.37
2022-10-05T11:33:28.676Z,18.35
2022-10-05T11:34:28.622Z,18.33
2022-10-05T11:35:28.608Z,18.39
2022-10-05T11:36:28.650Z,18.41
2022-10-05T11:37:28.630Z,18.36
2022-10-05T11:38:28.954Z,18.35
2022-10-05T11:39:28.625Z,18.36
2022-10-05T11:40:28.623Z,18.39
2022-10-05T11:41:29.054Z,18.47
2022-10-05T11:42:28.566Z,18.48
2022-10-05T11:43:28.558Z,18.52
2022-10-05T11:44:28.549Z,18.57
2022-10-05T11:45:28.559Z,18.50
2022-10-05T11:46:28.608Z,18.42
2022-10-05T11:47:28.466Z,18.41
2022-10-05T11:48:28.468Z,18.39
2022-10-05T11:49:28.495Z,18.41
2022-10-05T11:50:28.511Z,18.50
2022-10-05T11:51:29.000Z,18.60
2022-10-05T11:52:28.669Z,18.58
2022-10-05T11:53:28.438Z,18.58
2022-10-05T11:54:28.420Z,18.66
2022-10-05T11:55:28.430Z,18.65
2022-10-05T11:56:31.357Z,18.73
2022-10-05T11:57:28.427Z,18.73
2022-10-05T11:58:28.465Z,18.75
2022-10-05T11:59:28.397Z,18.75
2022-10-05T12:00:28.345Z,18.80
2022-10-05T12:01:28.372Z,18.82
2022-10-05T12:02:28.472Z,18.88
2022-10-05T12:03:28.479Z,18.81
2022-10-05T12:04:28.378Z,18.85
2022-10-05T12:05:28.271Z,18.92
2022-10-05T12:06:28.297Z,18.95
2022-10-05T12:07:28.299Z,19.07
2022-10-05T12:08:28.300Z,19.04
2022-10-05T12:09:28.250Z,19.22
2022-10-05T12:10:28.287Z,19.21
2022-10-05T12:11:28.213Z,19.44
2022-10-05T12:12:28.210Z,19.55
2022-10-05T12:13:28.225Z,19.76
2022-10-05T12:14:28.224Z,19.73
2022-10-05T12:15:28.198Z,19.68
2022-10-05T12:16:28.309Z,19.51
2022-10-05T12:17:28.164Z,19.50
2022-10-05T12:18:28.655Z,19.55
2022-10-05T12:19:28.159Z,19.84
2022-10-05T12:20:28.752Z,19.92
2022-10-05T12:21:28.204Z,20.33
2022-10-05T12:22:28.233Z,20.41
2022-10-05T12:23:28.605Z,20.33
2022-10-05T12:24:28.119Z,20.76
2022-10-05T12:25:28.268Z,20.69
2022-10-05T12:26:28.117Z,20.85
2022-10-05T12:27:31.268Z,20.99
2022-10-05T12:28:28.070Z,21.21
2022-10-05T12:29:28.058Z,21.14
2022-10-05T12:30:28.096Z,21.06
2022-10-05T12:31:28.067Z,20.89
2022-10-05T12:32:28.091Z,20.91
2022-10-05T12:33:28.043Z,21.16
2022-10-05T12:34:28.000Z,21.07
2022-10-05T12:35:43.958Z,21.04
2022-10-05T12:36:46.227Z,20.76
2022-10-05T12:37:28.969Z,20.72
2022-10-05T12:38:27.988Z,20.73
2022-10-05T12:39:27.969Z,20.66
2022-10-05T12:40:27.925Z,20.52
2022-10-05T12:41:27.926Z,20.57
2022-10-05T12:42:27.992Z,20.76
2022-10-05T12:43:27.874Z,20.87
2022-10-05T12:44:27.910Z,20.73
2022-10-05T12:45:27.928Z,21.04
2022-10-05T12:46:27.861Z,21.22
2022-10-05T12:47:27.853Z,21.42
2022-10-05T12:48:27.915Z,21.61
2022-10-05T12:49:27.840Z,21.35
2022-10-05T12:50:27.851Z,21.03
2022-10-05T12:51:27.973Z,21.01
2022-10-05T12:52:27.865Z,20.79
2022-10-05T12:53:27.835Z,20.80
2022-10-05T12:54:27.790Z,20.87
2022-10-05T12:55:27.787Z,20.92